sensor_id;sensor_type;location;lat;lon;timestamp;P1;durP1;ratioP1;P2;durP2;ratioP2
41709;SDS011;59402;48.396;-4.472;2022-10-13T00:01:52;17.85;;;4.10;;
41709;SDS011;59402;48.396;-4.472;2022-10-13T00:05:10;22.10;;;3.67;;
41709;SDS011;59402;48.396;-4.472;2022-10-13T00:08:29;25.48;;;3.92;;
41709;SDS011;59402;48.396;-4.472;2022-10-13T00:11:47;18.50;;;3.42;;
41709;SDS011;59402;48.396;-4.472;2022-10-13T00:15:07;25.02;;;4.43;;
41709;SDS011;59402;48.396;-4.472;2022-10-13T00:18:28;26.45;;;4.53;;
41709;SDS011;59402;48.396;-4.472;2022-10-13T00:21:46;21.35;;;3.83;;
41709;SDS011;59402;48.396;-4.472;2022-10-13T00:25:04;16.55;;;3.67;;
41709;SDS011;59402;48.396;-4.472;2022-10-13T00:28:23;23.95;;;4.20;;
41709;SDS011;59402;48.396;-4.472;2022-10-13T00:31:41;30.88;;;4.30;;
41709;SDS011;59402;48.396;-4.472;2022-10-13T00:34:44;30.88;;;4.22;;
41709;SDS011;59402;48.396;-4.472;2022-10-13T00:37:44;26.15;;;4.25;;
41709;SDS011;59402;48.396;-4.472;2022-10-13T00:41:01;30.73;;;5.13;;
41709;SDS011;59402;48.396;-4.472;2022-10-13T00:44:51;26.98;;;4.13;;
41709;SDS011;59402;48.396;-4.472;2022-10-13T00:50:26;28.55;;;5.03;;
41709;SDS011;59402;48.396;-4.472;2022-10-13T00:53:08;24.45;;;4.47;;
41709;SDS011;59402;48.396;-4.472;2022-10-13T00:55:45;27.83;;;5.05;;
41709;SDS011;59402;48.396;-4.472;2022-10-13T00:58:44;29.85;;;4.20;;
41709;SDS011;59402;48.396;-4.472;2022-10-13T01:01:18;24.33;;;4.15;;
41709;SDS011;59402;48.396;-4.472;2022-10-13T01:03:46;30.27;;;4.40;;
41709;SDS011;59402;48.396;-4.472;2022-10-13T01:06:16;22.48;;;4.35;;
41709;SDS011;59402;48.396;-4.472;2022-10-13T01:09:01;28.73;;;4.00;;
41709;SDS011;59402;48.396;-4.472;2022-10-13T01:15:31;21.77;;;4.90;;
41709;SDS011;59402;48.396;-4.472;2022-10-13T01:20:48;24.45;;;4.30;;
41709;SDS011;59402;48.396;-4.472;2022-10-13T01:29:12;21.58;;;3.35;;
41709;SDS011;59402;48.396;-4.472;2022-10-13T01:31:51;22.23;;;4.15;;
41709;SDS011;59402;48.396;-4.472;2022-10-13T01:34:25;27.55;;;4.47;;
41709;SDS011;59402;48.396;-4.472;2022-10-13T01:37:10;24.73;;;4.65;;
41709;SDS011;59402;48.396;-4.472;2022-10-13T01:39:56;35.70;;;4.45;;
41709;SDS011;59402;48.396;-4.472;2022-10-13T01:42:35;25.77;;;4.22;;
41709;SDS011;59402;48.396;-4.472;2022-10-13T01:45:13;26.33;;;4.18;;
41709;SDS011;59402;48.396;-4.472;2022-10-13T01:47:42;28.88;;;5.18;;
41709;SDS011;59402;48.396;-4.472;2022-10-13T01:50:09;22.02;;;4.45;;
41709;SDS011;59402;48.396;-4.472;2022-10-13T01:52:41;25.60;;;4.57;;
41709;SDS011;59402;48.396;-4.472;2022-10-13T01:55:16;21.15;;;4.15;;
41709;SDS011;59402;48.396;-4.472;2022-10-13T01:58:39;16.50;;;4.13;;
41709;SDS011;59402;48.396;-4.472;2022-10-13T02:09:25;21.48;;;3.30;;
41709;SDS011;59402;48.396;-4.472;2022-10-13T02:13:00;14.60;;;2.60;;
41709;SDS011;59402;48.396;-4.472;2022-10-13T02:16:20;20.02;;;3.08;;
41709;SDS011;59402;48.396;-4.472;2022-10-13T02:19:40;18.90;;;3.13;;
41709;SDS011;59402;48.396;-4.472;2022-10-13T02:23:00;22.17;;;3.40;;
41709;SDS011;59402;48.396;-4.472;2022-10-13T02:26:19;19.58;;;2.75;;
41709;SDS011;59402;48.396;-4.472;2022-10-13T02:29:47;18.05;;;3.15;;
41709;SDS011;59402;48.396;-4.472;2022-10-13T02:33:06;19.15;;;3.55;;
41709;SDS011;59402;48.396;-4.472;2022-10-13T02:36:24;19.40;;;3.67;;
41709;SDS011;59402;48.396;-4.472;2022-10-13T02:39:42;18.17;;;3.30;;
41709;SDS011;59402;48.396;-4.472;2022-10-13T02:43:01;24.52;;;3.85;;
41709;SDS011;59402;48.396;-4.472;2022-10-13T02:46:19;18.35;;;3.97;;
41709;SDS011;59402;48.396;-4.472;2022-10-13T02:49:37;24.00;;;3.78;;
41709;SDS011;59402;48.396;-4.472;2022-10-13T02:52:57;20.23;;;3.35;;
41709;SDS011;59402;48.396;-4.472;2022-10-13T02:56:15;18.10;;;3.33;;
41709;SDS011;59402;48.396;-4.472;2022-10-13T02:59:33;18.80;;;3.22;;
41709;SDS011;59402;48.396;-4.472;2022-10-13T03:02:51;16.83;;;3.05;;
41709;SDS011;59402;48.396;-4.472;2022-10-13T03:06:09;18.38;;;3.45;;
41709;SDS011;59402;48.396;-4.472;2022-10-13T03:09:27;20.67;;;3.78;;
41709;SDS011;59402;48.396;-4.472;2022-10-13T03:12:48;14.55;;;3.45;;
41709;SDS011;59402;48.396;-4.472;2022-10-13T03:16:06;17.00;;;3.40;;
41709;SDS011;59402;48.396;-4.472;2022-10-13T03:19:24;15.65;;;2.58;;
41709;SDS011;59402;48.396;-4.472;2022-10-13T03:22:42;11.10;;;2.97;;
41709;SDS011;59402;48.396;-4.472;2022-10-13T03:26:00;15.10;;;2.97;;
41709;SDS011;59402;48.396;-4.472;2022-10-13T03:29:18;14.80;;;3.40;;
41709;SDS011;59402;48.396;-4.472;2022-10-13T03:32:37;17.58;;;3.45;;
41709;SDS011;59402;48.396;-4.472;2022-10-13T03:36:02;16.02;;;3.60;;
41709;SDS011;59402;48.396;-4.472;2022-10-13T03:39:20;16.08;;;3.25;;
41709;SDS011;59402;48.396;-4.472;2022-10-13T03:42:38;16.02;;;3.33;;
41709;SDS011;59402;48.396;-4.472;2022-10-13T03:45:57;39.83;;;4.00;;
41709;SDS011;59402;48.396;-4.472;2022-10-13T03:49:15;13.80;;;3.38;;
41709;SDS011;59402;48.396;-4.472;2022-10-13T03:52:33;9.60;;;2.72;;
41709;SDS011;59402;48.396;-4.472;2022-10-13T03:55:52;15.65;;;2.75;;
41709;SDS011;59402;48.396;-4.472;2022-10-13T03:59:11;15.02;;;2.50;;
41709;SDS011;59402;48.396;-4.472;2022-10-13T04:02:37;14.23;;;2.65;;
41709;SDS011;59402;48.396;-4.472;2022-10-13T04:05:59;16.23;;;3.38;;
41709;SDS011;59402;48.396;-4.472;2022-10-13T04:09:17;16.48;;;3.35;;
41709;SDS011;59402;48.396;-4.472;2022-10-13T04:12:37;19.05;;;3.80;;
41709;SDS011;59402;48.396;-4.472;2022-10-13T04:15:55;19.17;;;3.80;;
41709;SDS011;59402;48.396;-4.472;2022-10-13T04:19:13;22.95;;;4.35;;
41709;SDS011;59402;48.396;-4.472;2022-10-13T04:22:32;29.08;;;4.70;;
41709;SDS011;59402;48.396;-4.472;2022-10-13T04:25:50;24.77;;;4.88;;
41709;SDS011;59402;48.396;-4.472;2022-10-13T04:29:09;28.13;;;4.80;;
41709;SDS011;59402;48.396;-4.472;2022-10-13T04:32:28;31.02;;;5.00;;
41709;SDS011;59402;48.396;-4.472;2022-10-13T04:35:46;31.40;;;4.90;;
41709;SDS011;59402;48.396;-4.472;2022-10-13T04:39:04;32.67;;;4.80;;
41709;SDS011;59402;48.396;-4.472;2022-10-13T04:42:22;23.77;;;4.20;;
41709;SDS011;59402;48.396;-4.472;2022-10-13T04:45:40;16.90;;;3.88;;
41709;SDS011;59402;48.396;-4.472;2022-10-13T04:48:58;22.38;;;3.75;;
41709;SDS011;59402;48.396;-4.472;2022-10-13T04:52:16;19.70;;;4.07;;
41709;SDS011;59402;48.396;-4.472;2022-10-13T04:55:35;23.70;;;4.43;;
41709;SDS011;59402;48.396;-4.472;2022-10-13T04:58:57;16.85;;;3.35;;
41709;SDS011;59402;48.396;-4.472;2022-10-13T05:02:15;33.97;;;4.55;;
41709;SDS011;59402;48.396;-4.472;2022-10-13T05:05:33;20.25;;;4.30;;
41709;SDS011;59402;48.396;-4.472;2022-10-13T05:08:55;24.02;;;4.18;;
41709;SDS011;59402;48.396;-4.472;2022-10-13T05:12:15;28.10;;;4.80;;
41709;SDS011;59402;48.396;-4.472;2022-10-13T05:15:33;30.90;;;5.00;;
41709;SDS011;59402;48.396;-4.472;2022-10-13T05:18:52;26.52;;;4.35;;
41709;SDS011;59402;48.396;-4.472;2022-10-13T05:22:10;20.80;;;4.13;;
41709;SDS011;59402;48.396;-4.472;2022-10-13T05:25:28;24.45;;;4.43;;
41709;SDS011;59402;48.396;-4.472;2022-10-13T05:28:47;27.73;;;4.93;;
41709;SDS011;59402;48.396;-4.472;2022-10-13T05:32:05;34.10;;;6.20;;
41709;SDS011;59402;48.396;-4.472;2022-10-13T05:35:24;33.03;;;6.30;;
41709;SDS011;59402;48.396;-4.472;2022-10-13T05:38:43;32.28;;;5.05;;
41709;SDS011;59402;48.396;-4.472;2022-10-13T05:42:01;32.00;;;5.97;;
41709;SDS011;59402;48.396;-4.472;2022-10-13T05:45:20;54.05;;;6.93;;
41709;SDS011;59402;48.396;-4.472;2022-10-13T05:48:39;28.13;;;6.20;;
41709;SDS011;59402;48.396;-4.472;2022-10-13T05:52:01;28.15;;;5.45;;
41709;SDS011;59402;48.396;-4.472;2022-10-13T05:55:20;31.27;;;5.80;;
41709;SDS011;59402;48.396;-4.472;2022-10-13T05:58:45;28.73;;;4.68;;
41709;SDS011;59402;48.396;-4.472;2022-10-13T06:02:08;25.92;;;4.25;;
41709;SDS011;59402;48.396;-4.472;2022-10-13T06:05:30;23.33;;;4.32;;
41709;SDS011;59402;48.396;-4.472;2022-10-13T06:08:49;19.10;;;4.30;;
41709;SDS011;59402;48.396;-4.472;2022-10-13T06:12:08;26.27;;;4.45;;
41709;SDS011;59402;48.396;-4.472;2022-10-13T06:15:26;22.35;;;4.50;;
41709;SDS011;59402;48.396;-4.472;2022-10-13T06:18:45;24.15;;;4.03;;
41709;SDS011;59402;48.396;-4.472;2022-10-13T06:22:06;14.85;;;2.65;;
41709;SDS011;59402;48.396;-4.472;2022-10-13T06:25:24;8.13;;;1.95;;
41709;SDS011;59402;48.396;-4.472;2022-10-13T06:28:41;11.98;;;3.08;;
41709;SDS011;59402;48.396;-4.472;2022-10-13T06:32:00;12.77;;;2.42;;
41709;SDS011;59402;48.396;-4.472;2022-10-13T06:35:19;14.68;;;2.40;;
41709;SDS011;59402;48.396;-4.472;2022-10-13T06:38:37;27.58;;;3.40;;
41709;SDS011;59402;48.396;-4.472;2022-10-13T06:41:59;9.60;;;2.47;;
41709;SDS011;59402;48.396;-4.472;2022-10-13T06:45:20;17.08;;;3.10;;
41709;SDS011;59402;48.396;-4.472;2022-10-13T06:48:38;17.45;;;3.05;;
41709;SDS011;59402;48.396;-4.472;2022-10-13T06:51:56;47.35;;;3.65;;
41709;SDS011;59402;48.396;-4.472;2022-10-13T06:55:14;13.25;;;2.80;;
41709;SDS011;59402;48.396;-4.472;2022-10-13T06:58:34;11.02;;;2.00;;
41709;SDS011;59402;48.396;-4.472;2022-10-13T07:01:52;9.60;;;1.70;;
41709;SDS011;59402;48.396;-4.472;2022-10-13T07:05:13;10.75;;;1.70;;
41709;SDS011;59402;48.396;-4.472;2022-10-13T07:08:32;15.52;;;1.83;;
41709;SDS011;59402;48.396;-4.472;2022-10-13T07:11:50;74.03;;;4.07;;
41709;SDS011;59402;48.396;-4.472;2022-10-13T07:15:08;24.83;;;2.25;;
41709;SDS011;59402;48.396;-4.472;2022-10-13T07:18:28;183.95;;;8.65;;
41709;SDS011;59402;48.396;-4.472;2022-10-13T07:21:46;181.88;;;7.03;;
41709;SDS011;59402;48.396;-4.472;2022-10-13T07:25:04;200.15;;;7.60;;
41709;SDS011;59402;48.396;-4.472;2022-10-13T07:28:22;227.35;;;9.35;;
41709;SDS011;59402;48.396;-4.472;2022-10-13T07:31:41;191.45;;;6.95;;
41709;SDS011;59402;48.396;-4.472;2022-10-13T07:35:01;124.90;;;5.20;;
41709;SDS011;59402;48.396;-4.472;2022-10-13T07:38:22;95.68;;;3.92;;
41709;SDS011;59402;48.396;-4.472;2022-10-13T07:41:40;145.82;;;5.50;;
41709;SDS011;59402;48.396;-4.472;2022-10-13T07:44:58;148.35;;;5.55;;
41709;SDS011;59402;48.396;-4.472;2022-10-13T07:48:18;90.60;;;4.35;;
41709;SDS011;59402;48.396;-4.472;2022-10-13T07:51:36;124.57;;;5.25;;
41709;SDS011;59402;48.396;-4.472;2022-10-13T07:54:54;174.63;;;7.60;;
41709;SDS011;59402;48.396;-4.472;2022-10-13T07:58:12;236.43;;;8.90;;
41709;SDS011;59402;48.396;-4.472;2022-10-13T08:01:30;110.43;;;8.00;;
41709;SDS011;59402;48.396;-4.472;2022-10-13T08:04:48;411.35;;;14.30;;
41709;SDS011;59402;48.396;-4.472;2022-10-13T08:08:06;408.15;;;13.45;;
41709;SDS011;59402;48.396;-4.472;2022-10-13T08:11:25;548.58;;;18.73;;
41709;SDS011;59402;48.396;-4.472;2022-10-13T08:14:43;450.35;;;14.10;;
41709;SDS011;59402;48.396;-4.472;2022-10-13T08:18:05;525.30;;;19.38;;
41709;SDS011;59402;48.396;-4.472;2022-10-13T08:21:23;597.45;;;22.17;;
41709;SDS011;59402;48.396;-4.472;2022-10-13T08:24:41;490.08;;;16.70;;
41709;SDS011;59402;48.396;-4.472;2022-10-13T08:28:04;544.22;;;17.88;;
41709;SDS011;59402;48.396;-4.472;2022-10-13T08:31:22;668.65;;;29.90;;
41709;SDS011;59402;48.396;-4.472;2022-10-13T08:34:40;790.97;;;44.75;;
41709;SDS011;59402;48.396;-4.472;2022-10-13T08:37:58;397.15;;;14.48;;
41709;SDS011;59402;48.396;-4.472;2022-10-13T08:44:58;89.75;;;3.85;;
41709;SDS011;59402;48.396;-4.472;2022-10-13T08:48:31;175.60;;;5.90;;
41709;SDS011;59402;48.396;-4.472;2022-10-13T08:51:49;170.02;;;5.18;;
41709;SDS011;59402;48.396;-4.472;2022-10-13T08:55:27;87.30;;;3.22;;
41709;SDS011;59402;48.396;-4.472;2022-10-13T08:58:49;59.15;;;2.70;;
41709;SDS011;59402;48.396;-4.472;2022-10-13T09:02:29;4.97;;;1.17;;
41709;SDS011;59402;48.396;-4.472;2022-10-13T09:06:03;4.05;;;1.40;;
41709;SDS011;59402;48.396;-4.472;2022-10-13T09:09:43;3.28;;;1.20;;
41709;SDS011;59402;48.396;-4.472;2022-10-13T09:13:14;8.52;;;1.20;;
41709;SDS011;59402;48.396;-4.472;2022-10-13T09:16:40;6.15;;;1.40;;
41709;SDS011;59402;48.396;-4.472;2022-10-13T09:20:00;3.72;;;0.82;;
41709;SDS011;59402;48.396;-4.472;2022-10-13T09:23:32;3.03;;;1.17;;
41709;SDS011;59402;48.396;-4.472;2022-10-13T09:27:01;2.78;;;1.52;;
41709;SDS011;59402;48.396;-4.472;2022-10-13T09:30:32;4.80;;;2.25;;
41709;SDS011;59402;48.396;-4.472;2022-10-13T09:34:00;5.40;;;2.50;;
41709;SDS011;59402;48.396;-4.472;2022-10-13T09:40:58;7.20;;;2.70;;
41709;SDS011;59402;48.396;-4.472;2022-10-13T09:44:27;4.55;;;2.20;;
41709;SDS011;59402;48.396;-4.472;2022-10-13T09:47:49;3.47;;;1.60;;
41709;SDS011;59402;48.396;-4.472;2022-10-13T09:51:34;6.18;;;3.28;;
41709;SDS011;59402;48.396;-4.472;2022-10-13T09:54:51;9.30;;;3.20;;
41709;SDS011;59402;48.396;-4.472;2022-10-13T09:58:23;16.63;;;3.13;;
41709;SDS011;59402;48.396;-4.472;2022-10-13T10:01:43;13.75;;;2.22;;
41709;SDS011;59402;48.396;-4.472;2022-10-13T10:05:18;8.27;;;1.52;;
41709;SDS011;59402;48.396;-4.472;2022-10-13T10:12:03;36.13;;;5.80;;
41709;SDS011;59402;48.396;-4.472;2022-10-13T10:15:23;9.60;;;2.10;;
41709;SDS011;59402;48.396;-4.472;2022-10-13T10:18:52;3.65;;;1.42;;
41709;SDS011;59402;48.396;-4.472;2022-10-13T10:22:55;6.45;;;2.00;;
41709;SDS011;59402;48.396;-4.472;2022-10-13T10:33:46;13.68;;;3.90;;
41709;SDS011;59402;48.396;-4.472;2022-10-13T10:37:32;9.73;;;3.10;;
41709;SDS011;59402;48.396;-4.472;2022-10-13T10:44:57;13.75;;;9.40;;
41709;SDS011;59402;48.396;-4.472;2022-10-13T10:48:23;7.88;;;3.08;;
41709;SDS011;59402;48.396;-4.472;2022-10-13T10:51:44;6.20;;;1.95;;
41709;SDS011;59402;48.396;-4.472;2022-10-13T10:55:25;5.80;;;1.63;;
41709;SDS011;59402;48.396;-4.472;2022-10-13T10:58:59;3.90;;;1.70;;
41709;SDS011;59402;48.396;-4.472;2022-10-13T11:02:34;5.25;;;1.52;;
41709;SDS011;59402;48.396;-4.472;2022-10-13T11:13:14;4.95;;;3.20;;
41709;SDS011;59402;48.396;-4.472;2022-10-13T11:23:34;7.03;;;3.30;;
41709;SDS011;59402;48.396;-4.472;2022-10-13T11:30:43;6.07;;;3.92;;
41709;SDS011;59402;48.396;-4.472;2022-10-13T11:34:28;5.57;;;3.47;;
41709;SDS011;59402;48.396;-4.472;2022-10-13T11:41:11;7.45;;;2.88;;
41709;SDS011;59402;48.396;-4.472;2022-10-13T11:58:59;2.53;;;0.80;;
41709;SDS011;59402;48.396;-4.472;2022-10-13T12:02:24;1.60;;;0.90;;
41709;SDS011;59402;48.396;-4.472;2022-10-13T12:05:55;3.17;;;1.10;;
41709;SDS011;59402;48.396;-4.472;2022-10-13T12:09:19;3.50;;;1.05;;
41709;SDS011;59402;48.396;-4.472;2022-10-13T12:12:47;3.72;;;1.40;;
41709;SDS011;59402;48.396;-4.472;2022-10-13T12:16:13;8.82;;;5.78;;
41709;SDS011;59402;48.396;-4.472;2022-10-13T12:19:43;5.93;;;3.22;;
41709;SDS011;59402;48.396;-4.472;2022-10-13T12:23:01;7.93;;;3.80;;
41709;SDS011;59402;48.396;-4.472;2022-10-13T12:26:29;3.42;;;2.00;;
41709;SDS011;59402;48.396;-4.472;2022-10-13T12:29:48;6.20;;;2.83;;
41709;SDS011;59402;48.396;-4.472;2022-10-13T12:33:16;5.10;;;3.40;;
41709;SDS011;59402;48.396;-4.472;2022-10-13T12:36:58;5.50;;;2.90;;
41709;SDS011;59402;48.396;-4.472;2022-10-13T12:40:17;4.57;;;3.20;;
41709;SDS011;59402;48.396;-4.472;2022-10-13T12:43:36;5.97;;;2.88;;
41709;SDS011;59402;48.396;-4.472;2022-10-13T12:46:58;5.85;;;3.33;;
41709;SDS011;59402;48.396;-4.472;2022-10-13T12:53:42;6.72;;;3.88;;
41709;SDS011;59402;48.396;-4.472;2022-10-13T12:57:20;6.22;;;4.40;;
41709;SDS011;59402;48.396;-4.472;2022-10-13T13:00:44;7.55;;;4.93;;
41709;SDS011;59402;48.396;-4.472;2022-10-13T13:08:23;8.27;;;4.80;;
41709;SDS011;59402;48.396;-4.472;2022-10-13T13:11:44;9.27;;;5.53;;
41709;SDS011;59402;48.396;-4.472;2022-10-13T13:15:29;9.77;;;5.72;;
41709;SDS011;59402;48.396;-4.472;2022-10-13T13:18:48;11.15;;;6.20;;
41709;SDS011;59402;48.396;-4.472;2022-10-13T13:22:08;11.32;;;6.57;;
41709;SDS011;59402;48.396;-4.472;2022-10-13T13:25:26;8.07;;;6.10;;
41709;SDS011;59402;48.396;-4.472;2022-10-13T13:28:47;8.32;;;5.28;;
41709;SDS011;59402;48.396;-4.472;2022-10-13T13:32:05;11.10;;;6.93;;
41709;SDS011;59402;48.396;-4.472;2022-10-13T13:35:23;7.88;;;5.03;;
41709;SDS011;59402;48.396;-4.472;2022-10-13T13:38:44;7.70;;;4.93;;
41709;SDS011;59402;48.396;-4.472;2022-10-13T13:42:02;6.72;;;4.03;;
41709;SDS011;59402;48.396;-4.472;2022-10-13T13:45:24;8.50;;;4.25;;
41709;SDS011;59402;48.396;-4.472;2022-10-13T13:48:44;8.77;;;3.95;;
41709;SDS011;59402;48.396;-4.472;2022-10-13T13:52:02;5.88;;;3.20;;
41709;SDS011;59402;48.396;-4.472;2022-10-13T13:55:20;5.68;;;3.05;;
41709;SDS011;59402;48.396;-4.472;2022-10-13T13:58:40;6.68;;;3.03;;
41709;SDS011;59402;48.396;-4.472;2022-10-13T14:01:58;9.57;;;3.53;;
41709;SDS011;59402;48.396;-4.472;2022-10-13T14:05:16;12.20;;;5.75;;
41709;SDS011;59402;48.396;-4.472;2022-10-13T14:08:40;15.80;;;6.30;;
41709;SDS011;59402;48.396;-4.472;2022-10-13T14:11:58;12.82;;;6.22;;
41709;SDS011;59402;48.396;-4.472;2022-10-13T14:15:16;14.07;;;6.50;;
41709;SDS011;59402;48.396;-4.472;2022-10-13T14:18:38;11.07;;;6.07;;
41709;SDS011;59402;48.396;-4.472;2022-10-13T14:21:57;8.38;;;4.63;;
41709;SDS011;59402;48.396;-4.472;2022-10-13T14:25:15;6.95;;;4.30;;
41709;SDS011;59402;48.396;-4.472;2022-10-13T14:28:33;6.68;;;4.10;;
41709;SDS011;59402;48.396;-4.472;2022-10-13T14:31:51;4.95;;;3.28;;
41709;SDS011;59402;48.396;-4.472;2022-10-13T14:35:09;4.68;;;2.95;;
41709;SDS011;59402;48.396;-4.472;2022-10-13T14:38:29;3.53;;;1.88;;
41709;SDS011;59402;48.396;-4.472;2022-10-13T14:41:47;6.32;;;3.20;;
41709;SDS011;59402;48.396;-4.472;2022-10-13T14:45:08;5.13;;;2.92;;
41709;SDS011;59402;48.396;-4.472;2022-10-13T14:48:31;4.25;;;2.45;;
41709;SDS011;59402;48.396;-4.472;2022-10-13T14:51:50;4.93;;;2.75;;
41709;SDS011;59402;48.396;-4.472;2022-10-13T14:55:08;5.07;;;2.72;;
41709;SDS011;59402;48.396;-4.472;2022-10-13T14:58:29;3.72;;;2.22;;
41709;SDS011;59402;48.396;-4.472;2022-10-13T15:01:47;4.53;;;2.42;;
41709;SDS011;59402;48.396;-4.472;2022-10-13T15:05:06;3.97;;;2.00;;
41709;SDS011;59402;48.396;-4.472;2022-10-13T15:08:26;2.88;;;1.77;;
41709;SDS011;59402;48.396;-4.472;2022-10-13T15:11:44;3.60;;;2.03;;
41709;SDS011;59402;48.396;-4.472;2022-10-13T15:15:02;3.70;;;1.90;;
41709;SDS011;59402;48.396;-4.472;2022-10-13T15:18:21;3.63;;;1.90;;
41709;SDS011;59402;48.396;-4.472;2022-10-13T15:21:39;4.05;;;2.08;;
41709;SDS011;59402;48.396;-4.472;2022-10-13T15:24:57;5.57;;;2.60;;
41709;SDS011;59402;48.396;-4.472;2022-10-13T15:28:19;4.80;;;1.88;;
41709;SDS011;59402;48.396;-4.472;2022-10-13T15:31:37;3.97;;;2.60;;
41709;SDS011;59402;48.396;-4.472;2022-10-13T15:34:59;4.25;;;2.50;;
41709;SDS011;59402;48.396;-4.472;2022-10-13T15:38:18;6.25;;;2.38;;
41709;SDS011;59402;48.396;-4.472;2022-10-13T15:41:36;4.68;;;2.95;;
41709;SDS011;59402;48.396;-4.472;2022-10-13T15:44:54;5.07;;;3.17;;
41709;SDS011;59402;48.396;-4.472;2022-10-13T15:48:24;4.38;;;2.75;;
41709;SDS011;59402;48.396;-4.472;2022-10-13T15:51:42;5.65;;;2.95;;
41709;SDS011;59402;48.396;-4.472;2022-10-13T15:55:04;4.32;;;2.50;;
41709;SDS011;59402;48.396;-4.472;2022-10-13T15:58:25;7.78;;;2.30;;
41709;SDS011;59402;48.396;-4.472;2022-10-13T16:01:43;6.25;;;2.13;;
41709;SDS011;59402;48.396;-4.472;2022-10-13T16:05:01;4.43;;;2.10;;
41709;SDS011;59402;48.396;-4.472;2022-10-13T16:08:20;4.72;;;2.63;;
41709;SDS011;59402;48.396;-4.472;2022-10-13T16:11:38;4.63;;;3.17;;
41709;SDS011;59402;48.396;-4.472;2022-10-13T16:14:56;6.28;;;3.78;;
41709;SDS011;59402;48.396;-4.472;2022-10-13T16:18:22;6.73;;;4.60;;
41709;SDS011;59402;48.396;-4.472;2022-10-13T16:21:41;7.45;;;4.55;;
41709;SDS011;59402;48.396;-4.472;2022-10-13T16:24:59;5.70;;;3.78;;
41709;SDS011;59402;48.396;-4.472;2022-10-13T16:28:17;4.68;;;3.60;;
41709;SDS011;59402;48.396;-4.472;2022-10-13T16:31:35;4.28;;;3.00;;
41709;SDS011;59402;48.396;-4.472;2022-10-13T16:34:54;3.92;;;2.50;;
41709;SDS011;59402;48.396;-4.472;2022-10-13T16:38:14;5.72;;;2.72;;
41709;SDS011;59402;48.396;-4.472;2022-10-13T16:41:33;6.45;;;2.92;;
41709;SDS011;59402;48.396;-4.472;2022-10-13T16:44:51;5.35;;;3.30;;
41709;SDS011;59402;48.396;-4.472;2022-10-13T16:48:18;5.82;;;3.60;;
41709;SDS011;59402;48.396;-4.472;2022-10-13T16:51:37;9.05;;;4.00;;
41709;SDS011;59402;48.396;-4.472;2022-10-13T16:54:55;6.13;;;3.97;;
41709;SDS011;59402;48.396;-4.472;2022-10-13T16:58:13;7.30;;;4.38;;
41709;SDS011;59402;48.396;-4.472;2022-10-13T17:01:32;6.07;;;3.72;;
41709;SDS011;59402;48.396;-4.472;2022-10-13T17:04:50;10.25;;;4.50;;
41709;SDS011;59402;48.396;-4.472;2022-10-13T17:08:08;7.03;;;4.70;;
41709;SDS011;59402;48.396;-4.472;2022-10-13T17:11:28;8.10;;;4.10;;
41709;SDS011;59402;48.396;-4.472;2022-10-13T17:14:46;5.30;;;4.18;;
41709;SDS011;59402;48.396;-4.472;2022-10-13T17:18:12;6.60;;;4.13;;
41709;SDS011;59402;48.396;-4.472;2022-10-13T17:21:31;8.07;;;4.55;;
41709;SDS011;59402;48.396;-4.472;2022-10-13T17:24:49;6.20;;;4.00;;
41709;SDS011;59402;48.396;-4.472;2022-10-13T17:28:08;4.80;;;3.47;;
41709;SDS011;59402;48.396;-4.472;2022-10-13T17:31:26;8.32;;;5.20;;
41709;SDS011;59402;48.396;-4.472;2022-10-13T17:34:45;9.82;;;5.60;;
41709;SDS011;59402;48.396;-4.472;2022-10-13T17:38:14;11.25;;;6.43;;
41709;SDS011;59402;48.396;-4.472;2022-10-13T17:41:34;7.50;;;5.05;;
41709;SDS011;59402;48.396;-4.472;2022-10-13T17:44:53;11.73;;;6.72;;
41709;SDS011;59402;48.396;-4.472;2022-10-13T17:48:13;12.02;;;6.63;;
41709;SDS011;59402;48.396;-4.472;2022-10-13T17:51:33;10.13;;;4.95;;
41709;SDS011;59402;48.396;-4.472;2022-10-13T17:54:51;8.45;;;4.55;;
41709;SDS011;59402;48.396;-4.472;2022-10-13T17:58:09;8.57;;;4.95;;
41709;SDS011;59402;48.396;-4.472;2022-10-13T18:01:28;6.85;;;4.35;;
41709;SDS011;59402;48.396;-4.472;2022-10-13T18:04:46;8.70;;;4.53;;
41709;SDS011;59402;48.396;-4.472;2022-10-13T18:08:07;7.95;;;4.00;;
41709;SDS011;59402;48.396;-4.472;2022-10-13T18:11:28;6.97;;;4.40;;
41709;SDS011;59402;48.396;-4.472;2022-10-13T18:14:46;9.88;;;4.47;;
41709;SDS011;59402;48.396;-4.472;2022-10-13T18:18:04;6.68;;;4.30;;
41709;SDS011;59402;48.396;-4.472;2022-10-13T18:21:22;7.75;;;4.97;;
41709;SDS011;59402;48.396;-4.472;2022-10-13T18:24:42;9.23;;;5.10;;
41709;SDS011;59402;48.396;-4.472;2022-10-13T18:28:00;10.95;;;5.10;;
41709;SDS011;59402;48.396;-4.472;2022-10-13T18:31:20;9.00;;;4.40;;
41709;SDS011;59402;48.396;-4.472;2022-10-13T18:34:38;6.43;;;4.72;;
41709;SDS011;59402;48.396;-4.472;2022-10-13T18:37:56;9.02;;;4.75;;
41709;SDS011;59402;48.396;-4.472;2022-10-13T18:41:18;8.35;;;5.35;;
41709;SDS011;59402;48.396;-4.472;2022-10-13T18:44:36;7.18;;;5.03;;
41709;SDS011;59402;48.396;-4.472;2022-10-13T18:47:58;9.73;;;5.43;;
41709;SDS011;59402;48.396;-4.472;2022-10-13T18:51:17;9.05;;;4.45;;
41709;SDS011;59402;48.396;-4.472;2022-10-13T18:54:37;6.93;;;4.63;;
41709;SDS011;59402;48.396;-4.472;2022-10-13T18:57:55;6.55;;;4.70;;
41709;SDS011;59402;48.396;-4.472;2022-10-13T19:01:18;8.18;;;5.13;;
41709;SDS011;59402;48.396;-4.472;2022-10-13T19:04:37;11.57;;;6.20;;
41709;SDS011;59402;48.396;-4.472;2022-10-13T19:07:57;8.75;;;5.95;;
41709;SDS011;59402;48.396;-4.472;2022-10-13T19:11:16;11.40;;;6.10;;
41709;SDS011;59402;48.396;-4.472;2022-10-13T19:14:34;7.72;;;5.63;;
41709;SDS011;59402;48.396;-4.472;2022-10-13T19:17:52;8.45;;;5.60;;
41709;SDS011;59402;48.396;-4.472;2022-10-13T19:21:11;7.50;;;5.20;;
41709;SDS011;59402;48.396;-4.472;2022-10-13T19:24:31;6.97;;;4.93;;
41709;SDS011;59402;48.396;-4.472;2022-10-13T19:27:50;6.30;;;4.30;;
41709;SDS011;59402;48.396;-4.472;2022-10-13T19:31:10;8.55;;;4.82;;
41709;SDS011;59402;48.396;-4.472;2022-10-13T19:34:29;6.93;;;4.70;;
41709;SDS011;59402;48.396;-4.472;2022-10-13T19:37:47;8.15;;;5.00;;
41709;SDS011;59402;48.396;-4.472;2022-10-13T19:41:05;7.90;;;5.18;;
41709;SDS011;59402;48.396;-4.472;2022-10-13T19:44:24;7.18;;;5.05;;
41709;SDS011;59402;48.396;-4.472;2022-10-13T19:47:42;9.07;;;5.65;;
41709;SDS011;59402;48.396;-4.472;2022-10-13T19:51:00;7.40;;;5.00;;
41709;SDS011;59402;48.396;-4.472;2022-10-13T19:54:19;8.95;;;5.57;;
41709;SDS011;59402;48.396;-4.472;2022-10-13T19:57:37;8.38;;;5.82;;
41709;SDS011;59402;48.396;-4.472;2022-10-13T20:01:00;7.50;;;4.78;;
41709;SDS011;59402;48.396;-4.472;2022-10-13T20:04:20;9.13;;;5.70;;
41709;SDS011;59402;48.396;-4.472;2022-10-13T20:07:38;9.48;;;6.20;;
41709;SDS011;59402;48.396;-4.472;2022-10-13T20:10:56;9.70;;;6.10;;
41709;SDS011;59402;48.396;-4.472;2022-10-13T20:14:15;7.43;;;5.75;;
41709;SDS011;59402;48.396;-4.472;2022-10-13T20:17:34;10.30;;;6.25;;
41709;SDS011;59402;48.396;-4.472;2022-10-13T20:20:52;8.80;;;6.70;;
41709;SDS011;59402;48.396;-4.472;2022-10-13T20:24:11;9.20;;;6.88;;
41709;SDS011;59402;48.396;-4.472;2022-10-13T20:27:31;12.75;;;7.95;;
41709;SDS011;59402;48.396;-4.472;2022-10-13T20:30:49;11.68;;;7.65;;
41709;SDS011;59402;48.396;-4.472;2022-10-13T20:34:08;11.90;;;8.05;;
41709;SDS011;59402;48.396;-4.472;2022-10-13T20:37:26;11.70;;;6.40;;
41709;SDS011;59402;48.396;-4.472;2022-10-13T20:40:44;8.68;;;6.70;;
41709;SDS011;59402;48.396;-4.472;2022-10-13T20:44:02;10.95;;;6.57;;
41709;SDS011;59402;48.396;-4.472;2022-10-13T20:47:21;9.93;;;6.13;;
41709;SDS011;59402;48.396;-4.472;2022-10-13T20:50:39;10.45;;;7.03;;
41709;SDS011;59402;48.396;-4.472;2022-10-13T20:53:57;8.68;;;6.15;;